الصفحة الرئيسية
METAR-TAF:

METAR-TAF

مطار :

Saguache Municipal Airport

Saguache, كولورادو, الولايات المتحدة

دائرة عرض: 38-05-50N, خط طول: 106-10-07W, ارتفاع: 2385 متر

مراقبة الطقس الحالي

تاريخ ووقت الإصدار 4 دقيقة قبل الساعة 08:36UTC
رياح هادئة
درجة الحرارة -15°درجة مئوية
الرطوبة 71%
ضغط 1005 hPa
الرؤية: 16.1 كم
غيوم متفرقة على ارتفاع 2700 قدم
غيوم مفككة على ارتفاع 4200 قدم
ملبد بالغيوم على ارتفاع 5500 قدم

METAR: K04V 210836Z AUTO 00000KT 10SM SCT027 BKN042 OVC055 M15/M19 A2968 RMK AO2

زمن: 01:40 (08:40 UTC)


TAF: مفقودة

أرصاد الطقس والتوقعات من أكثر من 4000 مطار (تقارير الطقس للمطار METAR والتنبؤ بالطقس بالمطارTAF).

المحطات المتاحة هي النقط الصفراء والحمراء على الخريطة.

حرك المؤشر فوق النقطة لمعرفة اسم المحطة.

ثم انقر لمعرفة أرصاد وتوقعات الطقس.

لتغيير الخارطة: اضغط على الأزرار الخضراء مع رمز الصليب الأسود للتكبير. على الزر الأخضر مع شرطة للتصغير، أو على الأسهم الخضراء للخرائط المجاورة.


METAR-TAF: